This is the latest recevied weather packets stored in our database for station/object KG4GJX. If no packets are shown the sender has not sent any weather packets the latest 10 day(s).
| Time | Temp. | Humidity | Pressure | Rain* | Wind** | Luminosity | Snow |
|---|---|---|---|---|---|---|---|
| 1788387710 | 37.22° C | 43% | 1018.2 hPa | 0 mm | - | - | - |
| 1788387048 | 37.22° C | 43% | 1018.2 hPa | 0 mm | - | - | - |
| 1788386386 | 37.78° C | 42% | 1018.2 hPa | 0 mm | - | - | - |
| 1788385723 | 37.22° C | 45% | 1018.2 hPa | 0 mm | - | - | - |
| 1788385061 | 37.22° C | 47% | 1018.2 hPa | 0 mm | - | - | - |
| 1788384399 | 36.67° C | 46% | 1018.2 hPa | 0 mm | - | - | - |
| 1788383736 | 36.11° C | 50% | 1018.2 hPa | 0 mm | - | - | - |
| 1788383074 | 36.11° C | 52% | 1018.6 hPa | 0 mm | - | - | - |
| 1788382412 | 36.67° C | 49% | 1018.6 hPa | 0 mm | - | - | - |
| 1788381749 | 37.78° C | 44% | 1018.6 hPa | 0 mm | - | - | - |
| 1788381086 | 37.78° C | 44% | 1018.6 hPa | 0 mm | - | - | - |
| 1788380424 | 37.22° C | 44% | 1018.6 hPa | 0 mm | - | - | - |
| 1788379762 | 37.22° C | 45% | 1018.6 hPa | 0 mm | - | - | - |
| 1788379099 | 36.67° C | 45% | 1018.9 hPa | 0 mm | - | - | - |
| 1788378437 | 36.11° C | 46% | 1018.9 hPa | 0 mm | - | - | - |
| 1788377774 | 36.11° C | 47% | 1019.3 hPa | 0 mm | - | - | - |
| 1788377112 | 36.67° C | 48% | 1019.3 hPa | 0 mm | - | - | - |
| 1788376450 | 36.11° C | 49% | 1019.3 hPa | 0 mm | - | - | - |
| 1788375787 | 35.56° C | 47% | 1019.3 hPa | 0 mm | - | - | - |
| 1788375125 | 35.56° C | 50% | 1019.6 hPa | 0 mm | - | - | - |
| 1788374462 | 35.56° C | 49% | 1019.6 hPa | 0 mm | - | - | - |
| 1788373800 | 36.11° C | 48% | 1019.6 hPa | 0 mm | - | - | - |
| 1788373137 | 35.56° C | 51% | 1019.6 hPa | 0 mm | - | - | - |
| 1788372475 | 35.56° C | 51% | 1019.6 hPa | 0 mm | - | - | - |
| 1788371812 | 35° C | 52% | 1019.9 hPa | 0 mm | - | - | - |
* Rain latest hour (hover to see other rain measurements)
** Current wind speed in m/s (hover to see current wind gust speed)